createdAt,value
2023-04-26T00:00:29.312Z,47.50
2023-04-26T00:02:31.012Z,47.50
2023-04-26T00:04:34.180Z,47.50
2023-04-26T00:06:37.366Z,47.50
2023-04-26T00:08:39.077Z,47.40
2023-04-26T00:10:40.735Z,47.50
2023-04-26T00:12:42.618Z,47.50
2023-04-26T00:14:44.307Z,47.60
2023-04-26T00:16:46.247Z,47.50
2023-04-26T00:18:49.246Z,47.50
2023-04-26T00:20:51.275Z,47.50
2023-04-26T00:22:53.108Z,47.40
2023-04-26T00:24:54.664Z,47.40
2023-04-26T00:26:56.280Z,47.40
2023-04-26T00:28:57.906Z,47.50
2023-04-26T00:30:59.522Z,47.50
2023-04-26T00:33:01.259Z,47.50
2023-04-26T00:35:03.578Z,47.50
2023-04-26T00:37:05.295Z,48.10
2023-04-26T00:39:06.811Z,47.40
2023-04-26T00:41:08.344Z,47.40
2023-04-26T00:43:10.930Z,47.30
2023-04-26T00:45:12.487Z,47.40
2023-04-26T00:47:14.059Z,47.30
2023-04-26T00:49:19.628Z,47.40
2023-04-26T00:51:21.528Z,47.30
2023-04-26T00:53:23.445Z,47.40
2023-04-26T00:55:26.991Z,47.50
2023-04-26T00:57:28.564Z,47.40
2023-04-26T00:59:30.554Z,47.40
2023-04-26T01:01:32.585Z,47.30
2023-04-26T01:03:34.620Z,47.30
2023-04-26T01:05:36.759Z,47.30
2023-04-26T01:07:40.972Z,47.30
2023-04-26T01:09:43.738Z,47.30
2023-04-26T01:11:45.398Z,47.40
2023-04-26T01:13:46.948Z,47.40
2023-04-26T01:15:48.743Z,47.30
2023-04-26T01:17:50.826Z,47.30
2023-04-26T01:19:52.736Z,47.30
2023-04-26T01:21:54.320Z,47.30
2023-04-26T01:23:55.905Z,47.30
2023-04-26T01:25:57.566Z,47.20
2023-04-26T01:27:59.120Z,47.30
2023-04-26T01:30:01.053Z,47.20
2023-04-26T01:32:02.628Z,47.20
2023-04-26T01:34:04.146Z,47.20
2023-04-26T01:36:10.522Z,47.20
2023-04-26T01:38:14.432Z,47.20
2023-04-26T01:40:16.128Z,47.20
2023-04-26T01:42:17.664Z,47.20
2023-04-26T01:44:19.391Z,47.20
2023-04-26T01:46:21.530Z,47.20
2023-04-26T01:48:23.162Z,47.20
2023-04-26T01:50:24.812Z,47.20
2023-04-26T01:52:26.339Z,47.10
2023-04-26T01:54:27.967Z,47.10
2023-04-26T01:56:29.510Z,47.10
2023-04-26T01:58:31.503Z,47.10
2023-04-26T02:00:33.593Z,47.10
2023-04-26T02:02:35.197Z,47.20
2023-04-26T02:04:36.949Z,47.10
2023-04-26T02:06:38.578Z,47.00
2023-04-26T02:08:40.128Z,47.10
2023-04-26T02:10:41.695Z,47.00
2023-04-26T02:12:43.263Z,47.10
2023-04-26T02:14:44.923Z,47.00
2023-04-26T02:16:46.617Z,47.10
2023-04-26T02:18:49.979Z,47.00
2023-04-26T02:20:51.781Z,47.00
2023-04-26T02:22:53.345Z,47.10
2023-04-26T02:24:54.931Z,46.90
2023-04-26T02:27:00.424Z,47.00
2023-04-26T02:29:02.018Z,47.10
2023-04-26T02:31:03.709Z,47.00
2023-04-26T02:33:05.332Z,47.00
2023-04-26T02:35:07.173Z,47.00
2023-04-26T02:37:08.980Z,47.00
2023-04-26T02:39:11.999Z,47.00
2023-04-26T02:41:13.579Z,47.00
2023-04-26T02:43:15.174Z,47.00
2023-04-26T02:45:16.701Z,47.00
2023-04-26T02:47:18.254Z,47.00
2023-04-26T02:49:19.848Z,46.90
2023-04-26T02:51:21.417Z,46.90
2023-04-26T02:53:22.982Z,46.90
2023-04-26T02:55:24.521Z,46.90
2023-04-26T02:57:26.342Z,46.90
2023-04-26T02:59:27.913Z,46.90
2023-04-26T03:01:29.501Z,46.90
2023-04-26T03:03:32.398Z,46.80
2023-04-26T03:05:34.069Z,46.90
2023-04-26T03:07:35.732Z,46.80
2023-04-26T03:09:38.824Z,46.80
2023-04-26T03:11:40.357Z,46.80
2023-04-26T03:13:42.018Z,46.90
2023-04-26T03:15:46.983Z,46.90
2023-04-26T03:17:48.588Z,46.80
2023-04-26T03:19:50.296Z,46.90
2023-04-26T03:21:51.821Z,46.80
2023-04-26T03:23:53.352Z,46.80
2023-04-26T03:25:54.963Z,46.70
2023-04-26T03:27:56.684Z,46.70
2023-04-26T03:29:58.337Z,46.90
2023-04-26T03:32:00.012Z,47.00
2023-04-26T03:34:01.595Z,47.30
2023-04-26T03:36:03.380Z,47.30
2023-04-26T03:38:04.949Z,47.30
2023-04-26T03:40:09.745Z,47.20
2023-04-26T03:42:11.374Z,47.10
2023-04-26T03:44:13.016Z,46.90
2023-04-26T03:46:14.646Z,46.80
2023-04-26T03:48:17.143Z,46.50
2023-04-26T03:50:18.886Z,46.40
2023-04-26T03:52:20.493Z,46.30
2023-04-26T03:54:22.404Z,46.20
2023-04-26T03:56:23.920Z,46.30
2023-04-26T03:58:26.014Z,46.20
2023-04-26T04:00:27.820Z,46.20
2023-04-26T04:02:29.611Z,46.20
2023-04-26T04:04:31.641Z,46.30
2023-04-26T04:06:33.469Z,46.30
2023-04-26T04:08:35.092Z,46.30
2023-04-26T04:10:37.933Z,46.40
2023-04-26T04:12:39.588Z,46.40
2023-04-26T04:14:41.274Z,46.50
2023-04-26T04:16:42.999Z,46.50
2023-04-26T04:18:44.578Z,46.50
2023-04-26T04:20:46.294Z,46.50
2023-04-26T04:22:48.055Z,46.60
2023-04-26T04:24:49.612Z,46.60
2023-04-26T04:26:51.460Z,46.50
2023-04-26T04:28:53.527Z,45.50
2023-04-26T04:30:57.011Z,44.30
2023-04-26T04:33:01.442Z,45.10
2023-04-26T04:35:03.281Z,46.00
2023-04-26T04:37:04.969Z,46.30
2023-04-26T04:39:12.349Z,46.50
2023-04-26T04:41:14.509Z,46.50
2023-04-26T04:43:16.729Z,46.50
2023-04-26T04:45:18.643Z,46.60
2023-04-26T04:47:20.214Z,46.60
2023-04-26T04:49:22.003Z,46.70
2023-04-26T04:51:23.525Z,46.70
2023-04-26T04:53:25.062Z,46.70
2023-04-26T04:55:26.597Z,46.70
2023-04-26T04:57:28.370Z,46.70
2023-04-26T04:59:30.056Z,46.70
2023-04-26T05:01:34.672Z,46.70
2023-04-26T05:03:36.698Z,46.60
2023-04-26T05:05:38.392Z,46.50
2023-04-26T05:07:39.972Z,46.50
2023-04-26T05:09:44.559Z,46.50
2023-04-26T05:11:46.138Z,46.40
2023-04-26T05:13:50.273Z,46.40
2023-04-26T05:15:53.818Z,46.30
2023-04-26T05:17:55.870Z,46.30
2023-04-26T05:19:57.622Z,46.30
2023-04-26T05:21:59.257Z,46.30
2023-04-26T05:24:01.874Z,46.90
2023-04-26T05:26:06.952Z,46.20
2023-04-26T05:28:12.536Z,46.10
2023-04-26T05:30:14.229Z,46.20
2023-04-26T05:32:15.839Z,46.10
2023-04-26T05:34:17.426Z,46.20
2023-04-26T05:36:19.421Z,46.20
2023-04-26T05:38:21.907Z,46.20
2023-04-26T05:40:23.573Z,46.10
2023-04-26T05:42:25.535Z,46.00
2023-04-26T05:44:27.075Z,46.00
2023-04-26T05:46:28.664Z,46.00
2023-04-26T05:48:30.270Z,46.00
2023-04-26T05:50:31.852Z,46.20
2023-04-26T05:52:33.432Z,46.00
2023-04-26T05:54:34.952Z,45.80
2023-04-26T05:56:36.482Z,45.70
2023-04-26T05:58:38.038Z,45.50
2023-04-26T06:00:39.640Z,45.50
2023-04-26T06:02:41.549Z,45.50
2023-04-26T06:04:43.355Z,45.60
2023-04-26T06:06:45.084Z,45.50
2023-04-26T06:08:46.608Z,45.40
2023-04-26T06:10:48.372Z,45.40
2023-04-26T06:12:50.018Z,45.30
2023-04-26T06:14:51.583Z,45.30
2023-04-26T06:16:53.144Z,45.30
2023-04-26T06:18:54.697Z,45.30
2023-04-26T06:20:56.315Z,45.30
2023-04-26T06:22:57.903Z,45.20
2023-04-26T06:24:59.516Z,45.20
2023-04-26T06:27:01.100Z,45.20
2023-04-26T06:29:03.263Z,45.10
2023-04-26T06:31:04.854Z,45.10
2023-04-26T06:33:06.506Z,45.10
2023-04-26T06:35:08.335Z,45.00
2023-04-26T06:37:09.864Z,45.10
2023-04-26T06:39:11.700Z,45.00
2023-04-26T06:41:13.223Z,44.90
2023-04-26T06:43:14.786Z,45.10
2023-04-26T06:45:17.037Z,45.00
2023-04-26T06:47:18.589Z,44.90
2023-04-26T06:49:20.169Z,44.90
2023-04-26T06:51:21.749Z,44.90
2023-04-26T06:53:23.498Z,44.80
2023-04-26T06:55:25.268Z,44.80
2023-04-26T06:57:26.828Z,44.70
2023-04-26T06:59:28.372Z,44.70
2023-04-26T07:01:33.687Z,44.70
2023-04-26T07:03:35.701Z,44.80
2023-04-26T07:05:38.995Z,44.60
2023-04-26T07:07:40.602Z,44.70
2023-04-26T07:09:42.192Z,44.50
2023-04-26T07:11:45.896Z,44.60
2023-04-26T07:13:47.540Z,44.60
2023-04-26T07:15:49.125Z,44.50
2023-04-26T07:17:51.071Z,44.50
2023-04-26T07:19:53.589Z,45.00
2023-04-26T07:21:56.537Z,44.30
2023-04-26T07:23:58.368Z,44.40
2023-04-26T07:26:01.477Z,44.40
2023-04-26T07:28:03.061Z,44.30
2023-04-26T07:30:05.530Z,44.20
2023-04-26T07:32:07.184Z,44.30
2023-04-26T07:34:08.842Z,44.20
2023-04-26T07:36:10.494Z,44.20
2023-04-26T07:38:14.484Z,44.20
2023-04-26T07:40:16.311Z,44.20
2023-04-26T07:42:17.974Z,44.20
2023-04-26T07:44:19.565Z,44.10
2023-04-26T07:46:21.602Z,44.00
2023-04-26T07:48:23.236Z,44.10
2023-04-26T07:50:24.846Z,44.00
2023-04-26T07:52:26.439Z,43.90
2023-04-26T07:54:28.124Z,43.90
2023-04-26T07:56:29.719Z,44.00
2023-04-26T07:58:32.944Z,43.90
2023-04-26T08:00:38.431Z,43.80
2023-04-26T08:02:45.051Z,43.80
2023-04-26T08:04:49.025Z,43.80
2023-04-26T08:06:50.689Z,43.80
2023-04-26T08:08:53.677Z,43.80
2023-04-26T08:10:55.774Z,43.80
2023-04-26T08:12:57.444Z,43.70
2023-04-26T08:15:00.166Z,43.80
2023-04-26T08:17:01.872Z,43.60
2023-04-26T08:19:03.573Z,43.70
2023-04-26T08:21:05.117Z,43.70
2023-04-26T08:23:06.804Z,43.70
2023-04-26T08:25:08.473Z,43.50
2023-04-26T08:27:10.066Z,43.60
2023-04-26T08:29:11.663Z,43.60
2023-04-26T08:31:13.862Z,43.40
2023-04-26T08:33:17.864Z,43.40
2023-04-26T08:35:19.415Z,43.40
2023-04-26T08:37:21.057Z,43.40
2023-04-26T08:39:22.685Z,43.40
2023-04-26T08:41:24.835Z,43.40
2023-04-26T08:43:27.835Z,43.30
2023-04-26T08:45:29.381Z,43.40
2023-04-26T08:47:44.021Z,43.40
2023-04-26T08:49:48.668Z,43.30
2023-04-26T08:51:50.553Z,43.30
2023-04-26T08:53:53.605Z,43.30
2023-04-26T08:55:55.679Z,43.30
2023-04-26T08:57:57.639Z,43.30
2023-04-26T08:59:59.403Z,43.30
2023-04-26T09:02:03.279Z,43.20
2023-04-26T09:04:05.572Z,43.30
2023-04-26T09:06:07.542Z,43.20
2023-04-26T09:08:09.690Z,43.90
2023-04-26T09:10:12.875Z,43.20
2023-04-26T09:12:14.466Z,43.10
2023-04-26T09:14:16.136Z,43.10
2023-04-26T09:16:17.767Z,43.00
2023-04-26T09:18:20.385Z,43.00
2023-04-26T09:20:28.701Z,43.00
2023-04-26T09:22:30.286Z,43.00
2023-04-26T09:24:48.316Z,43.00
2023-04-26T09:27:01.146Z,43.00
2023-04-26T09:29:15.400Z,43.10
2023-04-26T09:31:36.235Z,43.00
2023-04-26T09:33:57.221Z,43.00
2023-04-26T09:36:10.715Z,43.00
2023-04-26T09:38:14.028Z,42.90
2023-04-26T09:40:19.782Z,42.90
2023-04-26T09:42:21.525Z,43.10
2023-04-26T09:44:23.566Z,42.90
2023-04-26T09:46:25.249Z,42.90
2023-04-26T09:48:30.308Z,43.00
2023-04-26T09:50:32.039Z,42.90
2023-04-26T09:52:42.254Z,42.90
2023-04-26T09:54:45.089Z,42.90
2023-04-26T09:56:59.092Z,43.00
2023-04-26T09:59:02.266Z,42.90
2023-04-26T10:01:05.086Z,43.00
2023-04-26T10:03:08.775Z,42.90
2023-04-26T10:05:10.720Z,42.90
2023-04-26T10:07:13.083Z,42.90
2023-04-26T10:09:15.418Z,42.80
2023-04-26T10:11:18.050Z,43.40
2023-04-26T10:13:19.685Z,42.70
2023-04-26T10:15:21.271Z,42.70
2023-04-26T10:17:22.943Z,42.60
2023-04-26T10:19:24.738Z,42.60
2023-04-26T10:21:28.674Z,42.60
2023-04-26T10:23:30.379Z,42.50
2023-04-26T10:25:36.487Z,42.40
2023-04-26T10:27:44.482Z,42.40
2023-04-26T10:29:54.868Z,42.30
2023-04-26T10:32:02.627Z,42.40
2023-04-26T10:34:20.377Z,42.40
2023-04-26T10:36:22.197Z,42.40
2023-04-26T10:38:23.739Z,42.30
2023-04-26T10:40:29.421Z,42.40
2023-04-26T10:42:32.289Z,42.40
2023-04-26T10:44:39.401Z,42.30
2023-04-26T10:46:41.127Z,42.30
2023-04-26T10:48:42.781Z,42.40
2023-04-26T10:51:05.423Z,42.30
2023-04-26T10:53:07.070Z,42.40
2023-04-26T10:55:10.240Z,42.40
2023-04-26T10:57:11.898Z,42.30
2023-04-26T10:59:31.043Z,42.30
2023-04-26T11:01:35.768Z,42.30
2023-04-26T11:03:38.599Z,42.20
2023-04-26T11:05:56.164Z,42.30
2023-04-26T11:08:07.655Z,42.30
2023-04-26T11:10:12.361Z,42.20
2023-04-26T11:12:14.653Z,42.20
2023-04-26T11:14:16.536Z,42.20
2023-04-26T11:16:18.278Z,42.20
2023-04-26T11:18:21.123Z,42.20
2023-04-26T11:20:23.083Z,42.20
2023-04-26T11:22:24.718Z,42.20
2023-04-26T11:24:27.154Z,42.20
2023-04-26T11:26:32.951Z,42.20
2023-04-26T11:28:35.332Z,42.20
2023-04-26T11:30:36.891Z,42.20
2023-04-26T11:32:38.549Z,42.20
2023-04-26T11:34:40.604Z,42.20
2023-04-26T11:36:44.504Z,42.20
2023-04-26T11:38:46.089Z,42.20
2023-04-26T11:40:53.170Z,42.10
2023-04-26T11:42:54.753Z,42.00
2023-04-26T11:44:56.946Z,42.20
2023-04-26T11:46:59.281Z,42.20
2023-04-26T11:49:00.910Z,42.30
2023-04-26T11:51:03.748Z,42.20
2023-04-26T11:53:07.033Z,42.30
2023-04-26T11:55:10.251Z,42.30
2023-04-26T11:57:17.188Z,42.30
2023-04-26T11:59:31.746Z,42.40
2023-04-26T12:01:33.421Z,42.30
2023-04-26T12:03:37.884Z,42.20
2023-04-26T12:05:39.850Z,42.30
2023-04-26T12:07:41.668Z,42.20
2023-04-26T12:09:43.749Z,42.20
2023-04-26T12:12:07.645Z,42.10
2023-04-26T12:14:09.982Z,42.30
2023-04-26T12:16:25.572Z,42.20
2023-04-26T12:18:32.295Z,42.30
2023-04-26T12:20:35.792Z,42.30
2023-04-26T12:22:37.633Z,42.20
2023-04-26T12:24:39.531Z,42.20
2023-04-26T12:26:47.091Z,42.20
2023-04-26T12:28:49.012Z,42.30
2023-04-26T12:30:51.076Z,42.20
2023-04-26T12:32:52.698Z,42.20
2023-04-26T12:34:54.339Z,42.30
2023-04-26T12:36:56.235Z,42.20
2023-04-26T12:38:58.069Z,42.20
2023-04-26T12:40:59.778Z,42.20
2023-04-26T12:43:01.359Z,42.20
2023-04-26T12:45:02.997Z,42.20
2023-04-26T12:47:04.692Z,42.30
2023-04-26T12:49:06.274Z,42.20
2023-04-26T12:51:07.874Z,42.20
2023-04-26T12:53:11.056Z,42.20
2023-04-26T12:55:13.722Z,42.20
2023-04-26T12:57:15.563Z,42.20
2023-04-26T12:59:17.256Z,42.20
2023-04-26T13:01:18.862Z,42.30
2023-04-26T13:03:20.681Z,42.30
2023-04-26T13:05:24.634Z,42.30
2023-04-26T13:07:26.366Z,42.20
2023-04-26T13:09:28.016Z,42.20
2023-04-26T13:11:29.620Z,42.20
2023-04-26T13:13:42.165Z,42.20
2023-04-26T13:15:45.035Z,42.10
2023-04-26T13:17:47.019Z,42.20
2023-04-26T13:19:48.636Z,42.20
2023-04-26T13:21:52.356Z,42.20
2023-04-26T13:23:53.959Z,42.20
2023-04-26T13:25:55.900Z,42.20
2023-04-26T13:27:57.508Z,42.30
2023-04-26T13:29:59.072Z,42.20
2023-04-26T13:32:01.204Z,42.20
2023-04-26T13:34:03.190Z,42.20
2023-04-26T13:36:04.813Z,42.20
2023-04-26T13:38:06.425Z,42.20
2023-04-26T13:40:08.494Z,42.20
2023-04-26T13:42:10.041Z,42.20
2023-04-26T13:44:11.711Z,42.20
2023-04-26T13:46:13.506Z,42.20
2023-04-26T13:48:15.451Z,42.20
2023-04-26T13:50:18.004Z,42.90
2023-04-26T13:52:19.584Z,42.20
2023-04-26T13:54:25.953Z,42.20
2023-04-26T13:56:27.763Z,42.20
2023-04-26T13:58:29.412Z,42.10
2023-04-26T14:00:31.153Z,42.20
2023-04-26T14:02:32.820Z,42.10
2023-04-26T14:04:34.668Z,42.10
2023-04-26T14:06:36.427Z,42.10
2023-04-26T14:08:38.006Z,42.10
2023-04-26T14:10:39.571Z,42.10
2023-04-26T14:12:41.406Z,42.10
2023-04-26T14:14:42.992Z,42.10
2023-04-26T14:16:44.644Z,42.00
2023-04-26T14:18:46.426Z,42.00
2023-04-26T14:20:48.292Z,42.00
2023-04-26T14:22:50.225Z,42.10
2023-04-26T14:24:51.850Z,42.00
2023-04-26T14:26:53.377Z,42.10
2023-04-26T14:28:54.979Z,42.10
2023-04-26T14:30:56.516Z,42.10
2023-04-26T14:32:58.125Z,42.70
2023-04-26T14:34:59.790Z,42.00
2023-04-26T14:37:01.722Z,42.00
2023-04-26T14:39:03.401Z,42.00
2023-04-26T14:41:04.942Z,42.00
2023-04-26T14:43:06.473Z,42.10
2023-04-26T14:45:08.602Z,42.20
2023-04-26T14:47:10.177Z,42.30
2023-04-26T14:49:11.882Z,42.40
2023-04-26T14:51:13.503Z,42.40
2023-04-26T14:53:15.060Z,42.30
2023-04-26T14:55:17.615Z,42.20
2023-04-26T14:57:19.154Z,42.20
2023-04-26T14:59:21.063Z,42.20
2023-04-26T15:01:22.659Z,42.10
2023-04-26T15:03:24.535Z,42.20
2023-04-26T15:05:26.332Z,42.50
2023-04-26T15:07:32.504Z,42.40
2023-04-26T15:09:34.762Z,42.50
2023-04-26T15:11:36.481Z,42.40
2023-04-26T15:13:38.131Z,42.90
2023-04-26T15:15:39.773Z,42.20
2023-04-26T15:17:41.329Z,42.20
2023-04-26T15:19:42.967Z,42.20
2023-04-26T15:21:44.541Z,42.10
2023-04-26T15:23:46.385Z,42.00
2023-04-26T15:25:48.079Z,42.10
2023-04-26T15:27:50.520Z,42.70
2023-04-26T15:29:52.131Z,41.90
2023-04-26T15:31:53.773Z,42.00
2023-04-26T15:33:56.494Z,41.90
2023-04-26T15:35:58.075Z,41.90
2023-04-26T15:37:59.680Z,41.90
2023-04-26T15:40:01.549Z,42.00
2023-04-26T15:42:04.350Z,41.90
2023-04-26T15:44:05.898Z,41.90
2023-04-26T15:46:07.556Z,41.80
2023-04-26T15:48:10.746Z,41.90
2023-04-26T15:50:12.478Z,41.90
2023-04-26T15:52:14.080Z,41.80
2023-04-26T15:54:15.754Z,41.80
2023-04-26T15:56:17.797Z,41.80
2023-04-26T15:58:19.474Z,41.90
2023-04-26T16:00:21.416Z,41.70
2023-04-26T16:02:23.093Z,41.70
2023-04-26T16:04:24.970Z,42.00
2023-04-26T16:06:28.459Z,41.80
2023-04-26T16:08:39.811Z,41.80
2023-04-26T16:10:42.331Z,42.00
2023-04-26T16:12:44.730Z,42.00
2023-04-26T16:14:46.451Z,41.20
2023-04-26T16:16:48.108Z,41.40
2023-04-26T16:18:49.644Z,41.90
2023-04-26T16:20:51.405Z,41.90
2023-04-26T16:22:53.052Z,42.00
2023-04-26T16:24:54.617Z,42.00
2023-04-26T16:26:56.172Z,42.00
2023-04-26T16:28:57.800Z,42.00
2023-04-26T16:30:59.375Z,42.10
2023-04-26T16:33:01.588Z,42.20
2023-04-26T16:35:03.292Z,42.30
2023-04-26T16:37:04.978Z,42.60
2023-04-26T16:39:07.560Z,42.70
2023-04-26T16:41:09.142Z,43.00
2023-04-26T16:43:14.284Z,43.10
2023-04-26T16:45:16.766Z,43.20
2023-04-26T16:47:18.472Z,43.10
2023-04-26T16:49:20.038Z,43.00
2023-04-26T16:51:21.650Z,43.00
2023-04-26T16:53:23.278Z,43.00
2023-04-26T16:55:24.851Z,43.00
2023-04-26T16:57:26.450Z,42.90
2023-04-26T16:59:28.195Z,43.00
2023-04-26T17:01:29.765Z,42.90
2023-04-26T17:03:31.829Z,43.10
2023-04-26T17:05:37.287Z,42.90
2023-04-26T17:07:38.868Z,43.00
2023-04-26T17:09:40.392Z,43.20
2023-04-26T17:11:43.514Z,43.20
2023-04-26T17:13:45.297Z,43.20
2023-04-26T17:15:47.143Z,43.20
2023-04-26T17:17:48.879Z,43.20
2023-04-26T17:19:50.681Z,43.30
2023-04-26T17:21:52.332Z,43.40
2023-04-26T17:23:54.267Z,43.30
2023-04-26T17:25:55.963Z,42.40
2023-04-26T17:27:57.603Z,42.80
2023-04-26T17:29:59.180Z,43.20
2023-04-26T17:32:01.098Z,43.10
2023-04-26T17:34:04.851Z,43.30
2023-04-26T17:36:06.734Z,43.30
2023-04-26T17:38:08.301Z,43.20
2023-04-26T17:40:10.077Z,43.10
2023-04-26T17:42:11.717Z,43.00
2023-04-26T17:44:13.418Z,43.00
2023-04-26T17:46:15.070Z,43.00
2023-04-26T17:48:17.093Z,42.90
2023-04-26T17:50:20.989Z,42.90
2023-04-26T17:52:22.918Z,42.90
2023-04-26T17:54:24.484Z,42.80
2023-04-26T17:56:26.480Z,42.90
2023-04-26T17:58:28.015Z,42.90
2023-04-26T18:00:29.562Z,42.90
2023-04-26T18:02:31.470Z,42.90
2023-04-26T18:04:33.678Z,42.90
2023-04-26T18:06:36.708Z,42.80
2023-04-26T18:08:38.236Z,42.80
2023-04-26T18:10:39.898Z,42.70
2023-04-26T18:12:41.704Z,42.80
2023-04-26T18:14:46.408Z,42.80
2023-04-26T18:16:48.096Z,42.90
2023-04-26T18:18:49.669Z,42.90
2023-04-26T18:20:51.209Z,42.90
2023-04-26T18:22:52.764Z,43.00
2023-04-26T18:24:54.335Z,43.00
2023-04-26T18:26:55.925Z,42.90
2023-04-26T18:28:57.633Z,43.00
2023-04-26T18:31:00.008Z,43.00
2023-04-26T18:33:01.814Z,43.00
2023-04-26T18:35:06.176Z,42.90
2023-04-26T18:37:07.854Z,42.00
2023-04-26T18:39:09.453Z,41.20
2023-04-26T18:41:11.719Z,41.10
2023-04-26T18:43:13.657Z,42.00
2023-04-26T18:45:15.245Z,42.00
2023-04-26T18:47:16.801Z,42.90
2023-04-26T18:49:18.325Z,42.80
2023-04-26T18:51:19.924Z,43.80
2023-04-26T18:53:24.267Z,43.90
2023-04-26T18:55:28.831Z,44.30
2023-04-26T18:57:30.512Z,45.10
2023-04-26T18:59:32.254Z,45.50
2023-04-26T19:01:33.948Z,46.00
2023-04-26T19:03:35.800Z,46.10
2023-04-26T19:05:40.800Z,46.50
2023-04-26T19:07:42.524Z,46.80
2023-04-26T19:09:53.526Z,47.00
2023-04-26T19:11:56.499Z,47.20
2023-04-26T19:13:58.091Z,47.40
2023-04-26T19:15:59.761Z,47.40
2023-04-26T19:18:01.516Z,47.50
2023-04-26T19:20:09.085Z,47.40
2023-04-26T19:22:10.830Z,47.30
2023-04-26T19:24:12.602Z,47.30
2023-04-26T19:26:14.190Z,47.30
2023-04-26T19:28:16.031Z,47.30
2023-04-26T19:30:17.657Z,47.30
2023-04-26T19:32:19.953Z,47.10
2023-04-26T19:34:22.251Z,47.30
2023-04-26T19:36:24.743Z,48.20
2023-04-26T19:38:26.271Z,48.70
2023-04-26T19:40:27.795Z,49.00
2023-04-26T19:42:29.365Z,49.00
2023-04-26T19:44:31.316Z,49.10
2023-04-26T19:46:32.935Z,49.10
2023-04-26T19:48:34.537Z,48.70
2023-04-26T19:50:40.699Z,48.70
2023-04-26T19:52:42.289Z,48.70
2023-04-26T19:54:43.880Z,48.60
2023-04-26T19:56:45.941Z,48.40
2023-04-26T19:58:47.706Z,48.20
2023-04-26T20:00:49.339Z,48.70
2023-04-26T20:02:51.140Z,48.00
2023-04-26T20:04:52.794Z,47.90
2023-04-26T20:06:54.328Z,47.80
2023-04-26T20:08:55.913Z,47.90
2023-04-26T20:11:01.375Z,47.90
2023-04-26T20:13:02.932Z,47.70
2023-04-26T20:15:04.762Z,47.70
2023-04-26T20:17:06.835Z,47.60
2023-04-26T20:19:08.729Z,47.50
2023-04-26T20:21:10.622Z,47.50
2023-04-26T20:23:12.445Z,47.40
2023-04-26T20:25:14.056Z,47.30
2023-04-26T20:27:15.709Z,47.40
2023-04-26T20:29:17.628Z,47.20
2023-04-26T20:31:19.432Z,47.30
2023-04-26T20:33:21.262Z,47.30
2023-04-26T20:35:22.932Z,47.30
2023-04-26T20:37:24.500Z,47.30
2023-04-26T20:39:28.174Z,47.20
2023-04-26T20:41:29.764Z,47.20
2023-04-26T20:43:31.341Z,47.10
2023-04-26T20:45:32.876Z,47.10
2023-04-26T20:47:34.459Z,47.20
2023-04-26T20:49:36.123Z,47.20
2023-04-26T20:51:37.711Z,47.10
2023-04-26T20:53:39.741Z,47.10
2023-04-26T20:55:41.534Z,47.10
2023-04-26T20:57:43.105Z,47.10
2023-04-26T20:59:44.641Z,47.10
2023-04-26T21:01:46.270Z,47.00
2023-04-26T21:03:48.016Z,47.10
2023-04-26T21:05:49.672Z,47.00
2023-04-26T21:07:51.371Z,47.00
2023-04-26T21:09:56.144Z,47.10
2023-04-26T21:11:57.704Z,47.10
2023-04-26T21:13:59.275Z,47.10
2023-04-26T21:16:02.192Z,47.20
2023-04-26T21:18:04.045Z,47.20
2023-04-26T21:20:05.813Z,47.00
2023-04-26T21:22:09.226Z,47.00
2023-04-26T21:24:10.798Z,47.00
2023-04-26T21:26:12.348Z,47.00
2023-04-26T21:28:14.701Z,47.00
2023-04-26T21:30:16.514Z,47.00
2023-04-26T21:32:18.084Z,47.00
2023-04-26T21:34:20.150Z,47.00
2023-04-26T21:36:21.684Z,47.10
2023-04-26T21:38:23.317Z,47.10
2023-04-26T21:40:24.966Z,47.00
2023-04-26T21:42:26.545Z,47.00
2023-04-26T21:44:28.085Z,47.00
2023-04-26T21:46:29.783Z,47.00
2023-04-26T21:48:31.479Z,47.00
2023-04-26T21:50:33.054Z,46.90
2023-04-26T21:52:34.719Z,46.90
2023-04-26T21:54:36.672Z,46.90
2023-04-26T21:56:38.443Z,47.00
2023-04-26T21:58:42.879Z,47.00
2023-04-26T22:00:44.496Z,46.90
2023-04-26T22:02:46.502Z,46.90
2023-04-26T22:04:48.331Z,47.00
2023-04-26T22:06:49.965Z,46.90
2023-04-26T22:08:51.584Z,46.90
2023-04-26T22:10:53.224Z,46.90
2023-04-26T22:12:54.861Z,46.90
2023-04-26T22:14:56.629Z,46.90
2023-04-26T22:16:58.286Z,46.90
2023-04-26T22:18:59.947Z,46.80
2023-04-26T22:21:01.495Z,46.80
2023-04-26T22:23:03.158Z,46.80
2023-04-26T22:25:04.944Z,47.40
2023-04-26T22:27:06.467Z,46.80
2023-04-26T22:29:08.188Z,46.70
2023-04-26T22:31:10.004Z,46.80
2023-04-26T22:33:12.252Z,46.80
2023-04-26T22:35:13.931Z,46.80
2023-04-26T22:37:21.109Z,46.80
2023-04-26T22:39:23.036Z,46.70
2023-04-26T22:41:24.634Z,46.80
2023-04-26T22:43:26.214Z,46.80
2023-04-26T22:45:27.819Z,46.70
2023-04-26T22:47:29.434Z,46.80
2023-04-26T22:49:31.128Z,46.80
2023-04-26T22:51:32.954Z,46.80
2023-04-26T22:53:34.530Z,46.70
2023-04-26T22:55:36.234Z,46.80
2023-04-26T22:57:37.821Z,46.70
2023-04-26T22:59:39.495Z,46.70
2023-04-26T23:01:41.186Z,46.60
2023-04-26T23:03:42.867Z,46.70
2023-04-26T23:05:45.473Z,46.60
2023-04-26T23:07:47.079Z,46.70
2023-04-26T23:09:48.744Z,46.80
2023-04-26T23:11:51.014Z,46.70
2023-04-26T23:13:54.281Z,46.60
2023-04-26T23:15:56.081Z,46.60
2023-04-26T23:17:58.392Z,46.60
2023-04-26T23:20:00.167Z,46.60
2023-04-26T23:22:01.784Z,46.70
2023-04-26T23:24:03.613Z,46.70
2023-04-26T23:26:08.175Z,46.70
2023-04-26T23:28:10.196Z,46.60
2023-04-26T23:30:13.809Z,46.60
2023-04-26T23:32:15.426Z,46.60
2023-04-26T23:34:16.989Z,46.60
2023-04-26T23:36:18.554Z,46.50
2023-04-26T23:38:20.130Z,46.50
2023-04-26T23:40:21.785Z,46.50
2023-04-26T23:42:23.438Z,46.50
2023-04-26T23:44:25.016Z,46.50
2023-04-26T23:46:26.630Z,46.50
2023-04-26T23:48:28.586Z,46.50
2023-04-26T23:50:30.231Z,46.50
2023-04-26T23:52:31.797Z,46.50
2023-04-26T23:54:33.381Z,46.50
2023-04-26T23:56:34.945Z,46.50
2023-04-26T23:58:36.476Z,46.40
